createdAt,value
2019-01-11T00:00:00.365Z,3.53
2019-01-11T00:02:30.246Z,6.77
2019-01-11T00:05:00.013Z,4.43
2019-01-11T00:07:29.684Z,4.60
2019-01-11T00:09:59.523Z,3.97
2019-01-11T00:12:29.098Z,3.93
2019-01-11T00:14:58.829Z,3.70
2019-01-11T00:17:28.438Z,3.23
2019-01-11T00:20:03.456Z,3.80
2019-01-11T00:22:29.313Z,4.20
2019-01-11T00:24:59.471Z,4.33
2019-01-11T00:27:29.172Z,4.40
2019-01-11T00:30:00.695Z,2.33
2019-01-11T00:32:30.838Z,6.70
2019-01-11T00:35:01.189Z,3.37
2019-01-11T00:37:31.279Z,1.90
2019-01-11T00:40:01.521Z,4.80
2019-01-11T00:42:31.905Z,4.20
2019-01-11T00:45:02.055Z,4.30
2019-01-11T00:47:32.013Z,4.57
2019-01-11T00:50:02.042Z,5.10
2019-01-11T00:52:31.772Z,2.47
2019-01-11T00:55:02.123Z,7.03
2019-01-11T00:57:31.988Z,6.60
2019-01-11T01:00:02.132Z,7.07
2019-01-11T01:02:31.858Z,8.83
2019-01-11T01:05:01.771Z,5.00
2019-01-11T01:07:31.967Z,4.13
2019-01-11T01:10:01.771Z,5.60
2019-01-11T01:12:31.663Z,6.13
2019-01-11T01:15:01.584Z,3.20
2019-01-11T01:17:31.593Z,4.33
2019-01-11T01:20:01.272Z,6.93
2019-01-11T01:22:30.923Z,7.53
2019-01-11T01:25:00.717Z,5.27
2019-01-11T01:27:31.028Z,8.33
2019-01-11T01:30:00.832Z,6.83
2019-01-11T01:32:30.968Z,6.77
2019-01-11T01:35:01.076Z,6.73
2019-01-11T01:37:32.607Z,7.57
2019-01-11T01:40:02.984Z,7.53
2019-01-11T01:42:33.032Z,4.30
2019-01-11T01:45:02.825Z,6.90
2019-01-11T01:47:32.691Z,3.70
2019-01-11T01:50:02.852Z,6.97
2019-01-11T01:52:33.109Z,3.93
2019-01-11T01:55:02.934Z,7.37
2019-01-11T01:57:32.788Z,5.10
2019-01-11T02:00:02.392Z,3.90
2019-01-11T02:02:32.545Z,7.87
2019-01-11T02:05:02.402Z,3.63
2019-01-11T02:07:32.118Z,9.27
2019-01-11T02:10:02.168Z,7.33
2019-01-11T02:12:31.758Z,6.10
2019-01-11T02:15:01.785Z,1.77
2019-01-11T02:17:31.353Z,6.73
2019-01-11T02:20:01.253Z,12.43
2019-01-11T02:22:33.194Z,7.50
2019-01-11T02:25:02.948Z,6.67
2019-01-11T02:27:32.590Z,6.13
2019-01-11T02:30:02.234Z,9.00
2019-01-11T02:32:31.922Z,7.70
2019-01-11T02:35:01.471Z,4.23
2019-01-11T02:37:31.386Z,3.27
2019-01-11T02:40:01.065Z,9.90
2019-01-11T02:42:30.693Z,4.87
2019-01-11T02:45:00.704Z,6.13
2019-01-11T02:47:30.809Z,12.27
2019-01-11T02:50:00.498Z,8.03
2019-01-11T02:52:30.717Z,9.17
2019-01-11T02:55:00.475Z,6.50
2019-01-11T02:57:30.173Z,12.07
2019-01-11T02:59:59.799Z,5.77
2019-01-11T03:02:29.415Z,1.60
2019-01-11T03:04:59.433Z,6.60
2019-01-11T03:07:29.029Z,11.13
2019-01-11T03:09:59.052Z,4.60
2019-01-11T03:12:28.740Z,14.70
2019-01-11T03:14:58.387Z,5.50
2019-01-11T03:17:28.003Z,8.07
2019-01-11T03:19:57.672Z,13.97
2019-01-11T03:22:27.703Z,9.60
2019-01-11T03:24:57.403Z,12.37
2019-01-11T03:27:27.029Z,3.10
2019-01-11T03:29:56.676Z,10.77
2019-01-11T03:32:26.414Z,8.67
2019-01-11T03:35:12.998Z,18.53
2019-01-11T03:37:43.046Z,15.67
2019-01-11T03:40:14.067Z,12.83
2019-01-11T03:42:43.870Z,7.63
2019-01-11T03:45:15.139Z,13.43
2019-01-11T03:47:44.938Z,11.57
2019-01-11T03:50:15.882Z,14.37
2019-01-11T03:52:45.823Z,8.90
2019-01-11T03:55:16.685Z,10.87
2019-01-11T03:57:47.544Z,12.97
2019-01-11T04:00:22.080Z,9.27
2019-01-11T04:02:51.746Z,9.13
2019-01-11T04:05:21.916Z,19.80
2019-01-11T04:07:51.618Z,12.47
2019-01-11T04:10:22.856Z,13.40
2019-01-11T04:12:52.573Z,16.30
2019-01-11T04:15:23.345Z,15.93
2019-01-11T04:18:19.383Z,12.67
2019-01-11T04:20:49.332Z,4.20
2019-01-11T04:23:19.302Z,16.57
2019-01-11T04:25:48.953Z,12.30
2019-01-11T04:28:18.604Z,18.83
2019-01-11T04:30:48.304Z,17.43
2019-01-11T04:33:17.943Z,18.70
2019-01-11T04:35:47.911Z,17.53
2019-01-11T04:38:17.547Z,12.23
2019-01-11T04:40:47.951Z,8.27
2019-01-11T04:43:17.642Z,6.60
2019-01-11T04:45:47.731Z,12.23
2019-01-11T04:48:17.524Z,10.73
2019-01-11T04:50:47.389Z,19.20
2019-01-11T04:53:17.085Z,17.40
2019-01-11T04:55:46.692Z,16.30
2019-01-11T04:58:16.340Z,19.67
2019-01-11T05:00:45.968Z,21.33
2019-01-11T05:03:15.594Z,13.73
2019-01-11T05:05:45.251Z,20.73
2019-01-11T05:08:14.936Z,5.07
2019-01-11T05:10:44.614Z,18.70
2019-01-11T05:13:39.264Z,16.50
2019-01-11T05:16:08.933Z,11.83
2019-01-11T05:18:38.905Z,21.13
2019-01-11T05:21:08.634Z,22.67
2019-01-11T05:23:38.304Z,6.73
2019-01-11T05:26:08.253Z,18.97
2019-01-11T05:28:38.526Z,25.03
2019-01-11T05:31:08.191Z,25.97
2019-01-11T05:33:38.222Z,17.00
2019-01-11T05:36:08.326Z,9.07
2019-01-11T05:38:37.924Z,17.83
2019-01-11T05:41:07.610Z,16.00
2019-01-11T05:43:37.207Z,21.67
2019-01-11T05:46:07.536Z,18.77
2019-01-11T05:48:37.183Z,24.43
2019-01-11T05:51:06.813Z,22.77
2019-01-11T05:53:36.888Z,20.03
2019-01-11T05:56:09.963Z,19.80
2019-01-11T05:58:52.307Z,7.73
2019-01-11T06:01:23.543Z,19.57
2019-01-11T06:03:53.462Z,14.30
2019-01-11T06:06:23.167Z,18.50
2019-01-11T06:08:53.332Z,11.70
2019-01-11T06:11:23.402Z,20.30
2019-01-11T06:13:53.456Z,10.33
2019-01-11T06:16:26.056Z,18.37
2019-01-11T06:18:55.706Z,20.53
2019-01-11T06:21:26.628Z,18.10
2019-01-11T06:23:56.681Z,12.87
2019-01-11T06:26:27.646Z,19.80
2019-01-11T06:28:57.648Z,9.60
2019-01-11T06:31:27.380Z,19.40
2019-01-11T06:33:57.048Z,17.07
2019-01-11T06:36:26.924Z,17.83
2019-01-11T06:38:57.149Z,15.00
2019-01-11T06:41:34.539Z,23.50
2019-01-11T06:44:04.302Z,19.60
2019-01-11T06:47:36.172Z,19.47
2019-01-11T06:50:13.028Z,20.67
2019-01-11T06:52:42.691Z,11.00
2019-01-11T06:55:12.795Z,20.77
2019-01-11T06:57:42.531Z,20.57
2019-01-11T07:00:13.880Z,25.97
2019-01-11T07:02:43.842Z,24.90
2019-01-11T07:05:13.646Z,18.97
2019-01-11T07:07:43.633Z,27.40
2019-01-11T07:10:18.201Z,22.67
2019-01-11T07:12:48.011Z,22.87
2019-01-11T07:15:18.248Z,23.63
2019-01-11T07:17:47.884Z,21.53
2019-01-11T07:20:17.621Z,21.00
2019-01-11T07:22:47.331Z,20.07
2019-01-11T07:25:17.093Z,15.50
2019-01-11T07:27:57.204Z,18.77
2019-01-11T07:30:34.242Z,20.47
2019-01-11T07:33:05.418Z,24.80
2019-01-11T07:35:50.613Z,23.03
2019-01-11T07:38:20.699Z,25.90
2019-01-11T07:40:50.300Z,15.60
2019-01-11T07:43:19.941Z,18.90
2019-01-11T07:45:49.567Z,26.23
2019-01-11T07:48:19.612Z,18.77
2019-01-11T07:50:49.489Z,18.37
2019-01-11T07:53:20.387Z,24.70
2019-01-11T07:55:50.077Z,17.37
2019-01-11T07:58:19.902Z,17.73
2019-01-11T08:00:49.459Z,16.87
2019-01-11T08:03:19.200Z,7.50
2019-01-11T08:05:49.070Z,20.67
2019-01-11T08:08:18.758Z,16.70
2019-01-11T08:10:48.427Z,19.10
2019-01-11T08:13:18.570Z,22.70
2019-01-11T08:15:48.960Z,14.73
2019-01-11T08:18:18.816Z,21.03
2019-01-11T08:20:55.889Z,28.60
2019-01-11T08:23:20.536Z,27.77
2019-01-11T08:25:50.277Z,25.17
2019-01-11T08:28:19.881Z,17.17
2019-01-11T08:30:49.715Z,26.33
2019-01-11T08:33:19.767Z,16.67
2019-01-11T08:35:49.823Z,14.10
2019-01-11T08:38:19.486Z,24.43
2019-01-11T08:40:49.130Z,15.37
2019-01-11T08:43:19.476Z,23.87
2019-01-11T08:45:49.204Z,27.70
2019-01-11T08:48:22.096Z,21.73
2019-01-11T08:50:52.017Z,18.43
2019-01-11T08:53:21.728Z,33.10
2019-01-11T08:55:51.842Z,26.30
2019-01-11T08:58:21.563Z,24.13
2019-01-11T09:00:51.844Z,20.20
2019-01-11T09:03:21.431Z,27.07
2019-01-11T09:05:51.072Z,23.23
2019-01-11T09:08:20.933Z,21.13
2019-01-11T09:10:50.620Z,9.00
2019-01-11T09:13:21.065Z,10.20
2019-01-11T09:15:51.013Z,23.03
2019-01-11T09:18:27.676Z,25.33
2019-01-11T09:20:57.277Z,17.43
2019-01-11T09:23:26.879Z,19.07
2019-01-11T09:25:56.798Z,18.70
2019-01-11T09:28:27.287Z,12.37
2019-01-11T09:30:56.889Z,21.07
2019-01-11T09:33:26.524Z,13.33
2019-01-11T09:35:56.193Z,12.00
2019-01-11T09:38:25.900Z,11.63
2019-01-11T09:40:55.962Z,12.43
2019-01-11T09:43:25.568Z,12.13
2019-01-11T09:45:55.318Z,7.03
2019-01-11T09:48:25.007Z,11.10
2019-01-11T09:50:54.945Z,8.97
2019-01-11T09:53:24.660Z,13.20
2019-01-11T09:55:54.310Z,10.00
2019-01-11T09:58:24.436Z,5.10
2019-01-11T10:00:59.106Z,14.90
2019-01-11T10:03:25.318Z,3.13
2019-01-11T10:05:54.967Z,2.90
2019-01-11T10:08:25.202Z,5.17
2019-01-11T10:10:55.396Z,10.30
2019-01-11T10:13:25.213Z,3.77
2019-01-11T10:15:55.061Z,7.70
2019-01-11T10:18:24.927Z,4.40
2019-01-11T10:20:54.556Z,2.47
2019-01-11T10:23:24.155Z,2.23
2019-01-11T10:25:54.302Z,2.27
2019-01-11T10:28:23.938Z,1.87
2019-01-11T10:30:53.982Z,5.33
2019-01-11T10:33:23.630Z,3.10
2019-01-11T10:35:53.544Z,2.93
2019-01-11T10:38:23.184Z,7.40
2019-01-11T10:40:52.783Z,9.17
2019-01-11T10:43:22.434Z,3.93
2019-01-11T10:45:52.035Z,2.90
2019-01-11T10:48:22.820Z,3.40
2019-01-11T10:50:52.876Z,2.00
2019-01-11T10:53:22.930Z,4.57
2019-01-11T10:55:52.837Z,2.53
2019-01-11T10:58:22.427Z,2.40
2019-01-11T11:00:52.825Z,2.17
2019-01-11T11:03:22.373Z,4.73
2019-01-11T11:05:52.106Z,3.80
2019-01-11T11:08:21.823Z,3.20
2019-01-11T11:10:51.527Z,2.97
2019-01-11T11:13:21.236Z,2.00
2019-01-11T11:15:51.166Z,3.80
2019-01-11T11:18:20.754Z,1.47
2019-01-11T11:20:50.455Z,2.20
2019-01-11T11:23:20.143Z,2.80
2019-01-11T11:25:49.944Z,1.90
2019-01-11T11:28:19.949Z,2.87
2019-01-11T11:30:51.010Z,3.00
2019-01-11T11:33:21.217Z,3.83
2019-01-11T11:35:51.021Z,4.83
2019-01-11T11:38:21.030Z,1.80
2019-01-11T11:40:50.841Z,0.63
2019-01-11T11:43:20.488Z,2.80
2019-01-11T11:45:50.144Z,1.30
2019-01-11T11:48:20.708Z,2.67
2019-01-11T11:50:50.701Z,5.50
2019-01-11T11:53:20.751Z,9.03
2019-01-11T11:55:50.331Z,3.90
2019-01-11T11:58:19.896Z,5.73
2019-01-11T12:00:49.577Z,3.57
2019-01-11T12:03:19.583Z,5.57
2019-01-11T12:05:49.583Z,1.83
2019-01-11T12:08:19.242Z,4.20
2019-01-11T12:10:49.495Z,6.40
2019-01-11T12:13:19.550Z,1.33
2019-01-11T12:15:49.426Z,3.80
2019-01-11T12:18:19.332Z,2.53
2019-01-11T12:20:49.122Z,1.80
2019-01-11T12:23:19.912Z,1.80
2019-01-11T12:25:49.507Z,2.50
2019-01-11T12:28:19.121Z,3.33
2019-01-11T12:30:48.770Z,1.93
2019-01-11T12:33:18.463Z,6.53
2019-01-11T12:35:48.040Z,2.40
2019-01-11T12:38:17.697Z,3.83
2019-01-11T12:40:47.632Z,3.23
2019-01-11T12:43:17.603Z,4.83
2019-01-11T12:45:47.245Z,3.47
2019-01-11T12:48:17.173Z,1.67
2019-01-11T12:50:46.832Z,0.77
2019-01-11T12:53:16.617Z,2.77
2019-01-11T12:55:46.536Z,1.20
2019-01-11T12:58:16.278Z,1.43
2019-01-11T13:00:45.874Z,1.50
2019-01-11T13:03:15.846Z,3.07
2019-01-11T13:05:45.687Z,3.10
2019-01-11T13:08:15.661Z,4.13
2019-01-11T13:10:45.744Z,2.50
2019-01-11T13:13:16.254Z,0.60
2019-01-11T13:15:46.715Z,1.60
2019-01-11T13:18:16.606Z,1.47
2019-01-11T13:20:46.593Z,2.43
2019-01-11T13:23:16.771Z,1.30
2019-01-11T13:25:46.906Z,4.53
2019-01-11T13:28:16.552Z,1.70
2019-01-11T13:30:46.182Z,2.30
2019-01-11T13:33:15.857Z,3.47
2019-01-11T13:35:45.862Z,5.47
2019-01-11T13:38:15.689Z,1.07
2019-01-11T13:40:45.708Z,2.50
2019-01-11T13:43:15.765Z,1.30
2019-01-11T13:45:46.401Z,3.47
2019-01-11T13:48:16.130Z,4.53
2019-01-11T13:50:45.800Z,8.40
2019-01-11T13:53:20.159Z,2.40
2019-01-11T13:55:49.877Z,5.77
2019-01-11T13:58:19.619Z,2.83
2019-01-11T14:00:49.302Z,3.23
2019-01-11T14:03:18.985Z,1.30
2019-01-11T14:05:48.581Z,1.53
2019-01-11T14:08:18.169Z,5.63
2019-01-11T14:10:47.954Z,3.43
2019-01-11T14:13:18.185Z,1.73
2019-01-11T14:15:48.152Z,5.27
2019-01-11T14:18:17.981Z,5.17
2019-01-11T14:20:48.150Z,3.20
2019-01-11T14:23:18.450Z,5.43
2019-01-11T14:25:48.061Z,2.80
2019-01-11T14:28:17.753Z,3.30
2019-01-11T14:30:47.561Z,6.23
2019-01-11T14:33:17.872Z,6.07
2019-01-11T14:35:47.629Z,5.97
2019-01-11T14:38:17.477Z,4.53
2019-01-11T14:40:47.471Z,3.70
2019-01-11T14:43:17.341Z,4.80
2019-01-11T14:45:47.326Z,1.50
2019-01-11T14:48:17.018Z,7.17
2019-01-11T14:50:46.908Z,5.77
2019-01-11T14:53:16.562Z,2.00
2019-01-11T14:55:46.274Z,1.20
2019-01-11T14:58:15.880Z,1.57
2019-01-11T15:00:45.610Z,3.63
2019-01-11T15:03:15.631Z,1.23
2019-01-11T15:05:45.717Z,1.60
2019-01-11T15:08:15.321Z,5.07
2019-01-11T15:10:45.382Z,1.60
2019-01-11T15:13:15.402Z,6.43
2019-01-11T15:15:45.791Z,5.87
2019-01-11T15:18:15.618Z,4.30
2019-01-11T15:20:45.245Z,1.93
2019-01-11T15:23:15.380Z,2.30
2019-01-11T15:25:45.021Z,2.43
2019-01-11T15:28:14.663Z,4.13
2019-01-11T15:30:45.513Z,9.23
2019-01-11T15:33:15.642Z,3.80
2019-01-11T15:35:45.564Z,0.47
2019-01-11T15:38:15.355Z,6.27
2019-01-11T15:40:45.010Z,3.17
2019-01-11T15:43:14.953Z,4.73
2019-01-11T15:45:47.944Z,4.47
2019-01-11T15:48:19.158Z,4.33
2019-01-11T15:50:57.009Z,8.37
2019-01-11T15:53:29.693Z,0.80
2019-01-11T15:56:01.309Z,4.30
2019-01-11T15:58:31.073Z,3.27
2019-01-11T16:01:00.882Z,13.40
2019-01-11T16:03:30.620Z,5.13
2019-01-11T16:06:41.583Z,8.00
2019-01-11T16:09:15.034Z,6.60
2019-01-11T16:11:51.481Z,7.87
2019-01-11T16:14:42.258Z,10.87
2019-01-11T16:17:14.153Z,18.27
2019-01-11T16:19:43.976Z,12.13
2019-01-11T16:22:14.011Z,7.93
2019-01-11T16:24:44.008Z,14.13
2019-01-11T16:27:13.990Z,10.10
2019-01-11T16:29:43.898Z,11.53
2019-01-11T16:32:13.501Z,6.63
2019-01-11T16:34:43.516Z,11.70
2019-01-11T16:37:14.489Z,4.60
2019-01-11T16:39:44.368Z,6.93
2019-01-11T16:42:14.742Z,13.27
2019-01-11T16:44:45.629Z,10.57
2019-01-11T16:47:15.458Z,9.90
2019-01-11T16:49:45.656Z,13.83
2019-01-11T16:52:15.517Z,6.53
2019-01-11T16:54:47.797Z,15.87
2019-01-11T16:57:17.989Z,25.20
2019-01-11T16:59:47.737Z,8.07
2019-01-11T17:02:17.661Z,14.60
2019-01-11T17:04:47.758Z,13.20
2019-01-11T17:07:17.476Z,15.97
2019-01-11T17:09:47.381Z,9.80
2019-01-11T17:12:17.191Z,6.83
2019-01-11T17:14:46.875Z,4.90
2019-01-11T17:17:16.662Z,5.83
2019-01-11T17:19:47.098Z,17.10
2019-01-11T17:22:17.345Z,7.20
2019-01-11T17:24:47.442Z,14.80
2019-01-11T17:27:18.225Z,7.33
2019-01-11T17:29:52.723Z,10.57
2019-01-11T17:32:23.355Z,7.07
2019-01-11T17:34:55.704Z,4.30
2019-01-11T17:37:26.708Z,17.97
2019-01-11T17:39:57.778Z,21.73
2019-01-11T17:42:28.321Z,12.60
2019-01-11T17:44:58.426Z,18.83
2019-01-11T17:47:28.317Z,18.40
2019-01-11T17:50:01.163Z,8.60
2019-01-11T17:52:29.792Z,31.07
2019-01-11T17:54:59.616Z,27.70
2019-01-11T17:57:29.234Z,23.20
2019-01-11T17:59:58.979Z,14.93
2019-01-11T18:02:31.293Z,24.97
2019-01-11T18:05:01.313Z,12.97
2019-01-11T18:07:31.046Z,19.20
2019-01-11T18:10:01.846Z,7.40
2019-01-11T18:12:31.596Z,17.20
2019-01-11T18:15:01.359Z,13.80
2019-01-11T18:17:31.342Z,12.47
2019-01-11T18:20:02.134Z,5.43
2019-01-11T18:22:31.990Z,18.20
2019-01-11T18:25:02.101Z,7.13
2019-01-11T18:27:33.455Z,9.57
2019-01-11T18:30:03.618Z,16.30
2019-01-11T18:32:33.271Z,4.43
2019-01-11T18:35:02.955Z,10.73
2019-01-11T18:37:33.124Z,12.67
2019-01-11T18:40:02.824Z,18.00
2019-01-11T18:42:32.914Z,9.07
2019-01-11T18:45:02.731Z,12.87
2019-01-11T18:47:32.509Z,3.17
2019-01-11T18:50:03.289Z,7.30
2019-01-11T18:52:34.342Z,14.83
2019-01-11T18:55:04.261Z,17.47
2019-01-11T18:57:34.103Z,7.80
2019-01-11T19:00:05.104Z,12.27
2019-01-11T19:02:35.041Z,11.77
2019-01-11T19:05:06.061Z,12.70
2019-01-11T19:07:36.809Z,12.93
2019-01-11T19:10:09.736Z,15.77
2019-01-11T19:12:39.816Z,10.17
2019-01-11T19:15:11.909Z,12.63
2019-01-11T19:17:41.711Z,25.43
2019-01-11T19:20:31.502Z,9.13
2019-01-11T19:23:02.590Z,18.70
2019-01-11T19:25:32.396Z,20.17
2019-01-11T19:28:02.101Z,18.87
2019-01-11T19:30:32.322Z,24.07
2019-01-11T19:33:02.066Z,11.87
2019-01-11T19:35:31.741Z,14.50
2019-01-11T19:38:01.456Z,18.80
2019-01-11T19:40:31.183Z,22.20
2019-01-11T19:43:01.536Z,15.97
2019-01-11T19:45:31.554Z,20.10
2019-01-11T19:48:01.176Z,23.60
2019-01-11T19:50:31.437Z,15.73
2019-01-11T19:53:01.115Z,24.73
2019-01-11T19:55:31.374Z,15.20
2019-01-11T19:58:01.728Z,17.50
2019-01-11T20:00:31.681Z,20.47
2019-01-11T20:03:01.622Z,10.43
2019-01-11T20:05:31.951Z,13.33
2019-01-11T20:08:02.969Z,16.67
2019-01-11T20:10:35.540Z,11.50
2019-01-11T20:13:05.761Z,15.43
2019-01-11T20:15:35.696Z,21.27
2019-01-11T20:18:06.111Z,9.07
2019-01-11T20:20:36.200Z,11.00
2019-01-11T20:23:06.240Z,14.83
2019-01-11T20:25:36.272Z,16.00
2019-01-11T20:28:06.708Z,20.03
2019-01-11T20:30:36.896Z,11.60
2019-01-11T20:33:07.240Z,14.73
2019-01-11T20:35:37.341Z,26.47
2019-01-11T20:38:07.327Z,18.13
2019-01-11T20:40:37.567Z,17.47
2019-01-11T20:43:07.463Z,19.70
2019-01-11T20:45:37.072Z,9.20
2019-01-11T20:48:06.773Z,30.47
2019-01-11T20:50:37.635Z,13.77
2019-01-11T20:53:07.325Z,17.33
2019-01-11T20:55:37.016Z,17.70
2019-01-11T20:58:06.784Z,13.77
2019-01-11T21:00:36.577Z,22.20
2019-01-11T21:03:09.216Z,7.33
2019-01-11T21:05:39.336Z,21.40
2019-01-11T21:08:09.698Z,22.90
2019-01-11T21:10:40.582Z,20.63
2019-01-11T21:13:10.558Z,13.50
2019-01-11T21:15:41.708Z,16.47
2019-01-11T21:18:11.693Z,16.93
2019-01-11T21:20:41.370Z,15.13
2019-01-11T21:23:11.298Z,12.57
2019-01-11T21:25:40.888Z,10.57
2019-01-11T21:28:10.813Z,20.00
2019-01-11T21:30:40.501Z,16.03
2019-01-11T21:33:10.485Z,20.40
2019-01-11T21:35:40.112Z,26.93
2019-01-11T21:38:09.805Z,24.03
2019-01-11T21:40:39.528Z,28.73
2019-01-11T21:43:09.689Z,21.47
2019-01-11T21:45:39.461Z,16.57
2019-01-11T21:48:11.583Z,22.37
2019-01-11T21:50:41.271Z,8.90
2019-01-11T21:53:11.125Z,16.33
2019-01-11T21:55:41.434Z,11.93
2019-01-11T21:58:12.188Z,13.03
2019-01-11T22:00:43.700Z,15.27
2019-01-11T22:03:18.660Z,15.40
2019-01-11T22:05:48.881Z,13.70
2019-01-11T22:08:18.769Z,12.03
2019-01-11T22:10:48.473Z,16.67
2019-01-11T22:13:18.533Z,16.60
2019-01-11T22:15:48.361Z,12.77
2019-01-11T22:18:18.237Z,19.73
2019-01-11T22:20:48.268Z,38.30
2019-01-11T22:23:23.689Z,17.07
2019-01-11T22:25:49.829Z,23.53
2019-01-11T22:28:19.883Z,4.33
2019-01-11T22:30:49.822Z,21.03
2019-01-11T22:33:19.607Z,6.80
2019-01-11T22:35:49.334Z,5.57
2019-01-11T22:38:19.088Z,16.93
2019-01-11T22:40:48.730Z,14.53
2019-01-11T22:43:18.411Z,12.10
2019-01-11T22:45:48.183Z,20.50
2019-01-11T22:48:17.915Z,13.67
2019-01-11T22:50:47.737Z,13.17
2019-01-11T22:53:17.867Z,11.07
2019-01-11T22:55:47.559Z,14.63
2019-01-11T22:58:17.302Z,22.30
2019-01-11T23:01:18.176Z,8.27
2019-01-11T23:03:50.925Z,3.30
2019-01-11T23:07:02.929Z,19.77
2019-01-11T23:09:41.496Z,13.07
2019-01-11T23:12:58.589Z,15.13
2019-01-11T23:15:40.125Z,20.20
2019-01-11T23:18:25.259Z,13.60
2019-01-11T23:20:58.742Z,10.00
2019-01-11T23:23:28.443Z,7.00
2019-01-11T23:25:58.588Z,21.53
2019-01-11T23:28:28.265Z,13.40
2019-01-11T23:30:57.934Z,8.33
2019-01-11T23:33:27.897Z,14.93
2019-01-11T23:35:57.508Z,8.97
2019-01-11T23:38:28.755Z,14.53
2019-01-11T23:40:59.052Z,15.17
2019-01-11T23:43:29.908Z,8.40
2019-01-11T23:46:00.357Z,18.97
2019-01-11T23:48:30.485Z,6.77
2019-01-11T23:51:00.199Z,13.93
2019-01-11T23:53:31.044Z,9.63
2019-01-11T23:56:01.608Z,9.07
2019-01-11T23:58:32.340Z,10.00
